sensor_id;sensor_type;location;lat;lon;timestamp;P1;durP1;ratioP1;P2;durP2;ratioP2
19861;SDS011;10093;48.148;8.542;2023-02-28T00:01:12;6.03;;;3.78;;
19861;SDS011;10093;48.148;8.542;2023-02-28T00:03:38;6.18;;;3.53;;
19861;SDS011;10093;48.148;8.542;2023-02-28T00:06:04;5.40;;;3.72;;
19861;SDS011;10093;48.148;8.542;2023-02-28T00:08:31;5.20;;;3.83;;
19861;SDS011;10093;48.148;8.542;2023-02-28T00:11:00;7.85;;;4.20;;
19861;SDS011;10093;48.148;8.542;2023-02-28T00:13:27;7.03;;;4.10;;
19861;SDS011;10093;48.148;8.542;2023-02-28T00:16:00;4.90;;;3.90;;
19861;SDS011;10093;48.148;8.542;2023-02-28T00:18:27;6.43;;;3.78;;
19861;SDS011;10093;48.148;8.542;2023-02-28T00:20:53;6.55;;;3.80;;
19861;SDS011;10093;48.148;8.542;2023-02-28T00:23:19;4.70;;;3.78;;
19861;SDS011;10093;48.148;8.542;2023-02-28T00:25:44;5.65;;;3.85;;
19861;SDS011;10093;48.148;8.542;2023-02-28T00:28:10;5.93;;;4.28;;
19861;SDS011;10093;48.148;8.542;2023-02-28T00:30:35;6.10;;;4.35;;
19861;SDS011;10093;48.148;8.542;2023-02-28T00:33:01;7.38;;;4.25;;
19861;SDS011;10093;48.148;8.542;2023-02-28T00:35:27;5.07;;;3.83;;
19861;SDS011;10093;48.148;8.542;2023-02-28T00:37:52;8.25;;;4.45;;
19861;SDS011;10093;48.148;8.542;2023-02-28T00:40:18;7.10;;;4.07;;
19861;SDS011;10093;48.148;8.542;2023-02-28T00:42:44;6.85;;;4.28;;
19861;SDS011;10093;48.148;8.542;2023-02-28T00:45:09;8.18;;;4.53;;
19861;SDS011;10093;48.148;8.542;2023-02-28T00:47:35;6.97;;;4.80;;
19861;SDS011;10093;48.148;8.542;2023-02-28T00:50:01;5.00;;;3.97;;
19861;SDS011;10093;48.148;8.542;2023-02-28T00:52:27;6.78;;;4.32;;
19861;SDS011;10093;48.148;8.542;2023-02-28T00:54:52;7.20;;;4.32;;
19861;SDS011;10093;48.148;8.542;2023-02-28T00:57:18;5.68;;;4.20;;
19861;SDS011;10093;48.148;8.542;2023-02-28T00:59:44;5.80;;;4.03;;
19861;SDS011;10093;48.148;8.542;2023-02-28T01:02:09;6.28;;;4.07;;
19861;SDS011;10093;48.148;8.542;2023-02-28T01:04:35;5.72;;;3.95;;
19861;SDS011;10093;48.148;8.542;2023-02-28T01:07:00;6.18;;;4.20;;
19861;SDS011;10093;48.148;8.542;2023-02-28T01:09:26;6.05;;;3.97;;
19861;SDS011;10093;48.148;8.542;2023-02-28T01:11:52;7.22;;;4.53;;
19861;SDS011;10093;48.148;8.542;2023-02-28T01:14:17;8.48;;;4.40;;
19861;SDS011;10093;48.148;8.542;2023-02-28T01:16:43;9.27;;;4.70;;
19861;SDS011;10093;48.148;8.542;2023-02-28T01:19:09;8.02;;;4.07;;
19861;SDS011;10093;48.148;8.542;2023-02-28T01:21:35;8.70;;;4.15;;
19861;SDS011;10093;48.148;8.542;2023-02-28T01:24:01;6.13;;;4.07;;
19861;SDS011;10093;48.148;8.542;2023-02-28T01:26:28;6.28;;;4.20;;
19861;SDS011;10093;48.148;8.542;2023-02-28T01:28:54;7.28;;;3.90;;
19861;SDS011;10093;48.148;8.542;2023-02-28T01:31:20;8.02;;;3.83;;
19861;SDS011;10093;48.148;8.542;2023-02-28T01:33:46;6.90;;;4.13;;
19861;SDS011;10093;48.148;8.542;2023-02-28T01:36:23;9.85;;;4.22;;
19861;SDS011;10093;48.148;8.542;2023-02-28T01:38:49;6.32;;;4.22;;
19861;SDS011;10093;48.148;8.542;2023-02-28T01:41:20;6.40;;;4.10;;
19861;SDS011;10093;48.148;8.542;2023-02-28T01:46:11;6.75;;;4.13;;
19861;SDS011;10093;48.148;8.542;2023-02-28T01:48:40;8.30;;;3.92;;
19861;SDS011;10093;48.148;8.542;2023-02-28T01:51:46;6.10;;;3.67;;
19861;SDS011;10093;48.148;8.542;2023-02-28T01:54:20;5.65;;;3.85;;
19861;SDS011;10093;48.148;8.542;2023-02-28T01:56:51;6.03;;;3.90;;
19861;SDS011;10093;48.148;8.542;2023-02-28T01:59:25;5.25;;;4.28;;
19861;SDS011;10093;48.148;8.542;2023-02-28T02:02:02;8.00;;;4.03;;
19861;SDS011;10093;48.148;8.542;2023-02-28T02:04:31;6.88;;;3.90;;
19861;SDS011;10093;48.148;8.542;2023-02-28T02:07:02;5.70;;;3.57;;
19861;SDS011;10093;48.148;8.542;2023-02-28T02:09:29;7.07;;;4.30;;
19861;SDS011;10093;48.148;8.542;2023-02-28T02:11:54;6.00;;;3.90;;
19861;SDS011;10093;48.148;8.542;2023-02-28T02:14:32;6.78;;;4.28;;
19861;SDS011;10093;48.148;8.542;2023-02-28T02:20:09;6.18;;;4.43;;
19861;SDS011;10093;48.148;8.542;2023-02-28T02:25:52;6.85;;;4.38;;
19861;SDS011;10093;48.148;8.542;2023-02-28T02:34:32;8.13;;;4.40;;
19861;SDS011;10093;48.148;8.542;2023-02-28T02:38:09;6.65;;;4.38;;
19861;SDS011;10093;48.148;8.542;2023-02-28T02:45:21;9.82;;;4.78;;
19861;SDS011;10093;48.148;8.542;2023-02-28T02:47:48;7.45;;;4.82;;
19861;SDS011;10093;48.148;8.542;2023-02-28T02:50:17;6.43;;;4.72;;
19861;SDS011;10093;48.148;8.542;2023-02-28T02:52:49;9.00;;;5.18;;
19861;SDS011;10093;48.148;8.542;2023-02-28T02:55:19;7.38;;;4.47;;
19861;SDS011;10093;48.148;8.542;2023-02-28T02:57:47;8.00;;;4.97;;
19861;SDS011;10093;48.148;8.542;2023-02-28T03:00:27;9.55;;;5.00;;
19861;SDS011;10093;48.148;8.542;2023-02-28T03:02:57;8.60;;;4.65;;
19861;SDS011;10093;48.148;8.542;2023-02-28T03:05:25;8.90;;;4.78;;
19861;SDS011;10093;48.148;8.542;2023-02-28T03:07:55;8.27;;;5.00;;
19861;SDS011;10093;48.148;8.542;2023-02-28T03:10:34;7.18;;;4.70;;
19861;SDS011;10093;48.148;8.542;2023-02-28T03:15:52;6.28;;;4.63;;
19861;SDS011;10093;48.148;8.542;2023-02-28T03:21:18;8.32;;;5.57;;
19861;SDS011;10093;48.148;8.542;2023-02-28T03:26:42;10.00;;;5.70;;
19861;SDS011;10093;48.148;8.542;2023-02-28T03:32:08;10.32;;;5.82;;
19861;SDS011;10093;48.148;8.542;2023-02-28T03:34:50;9.55;;;5.82;;
19861;SDS011;10093;48.148;8.542;2023-02-28T03:37:22;9.93;;;5.80;;
19861;SDS011;10093;48.148;8.542;2023-02-28T03:39:53;11.27;;;5.90;;
19861;SDS011;10093;48.148;8.542;2023-02-28T03:42:25;9.40;;;6.28;;
19861;SDS011;10093;48.148;8.542;2023-02-28T03:44:58;9.13;;;6.15;;
19861;SDS011;10093;48.148;8.542;2023-02-28T03:47:34;10.48;;;5.78;;
19861;SDS011;10093;48.148;8.542;2023-02-28T03:50:18;10.65;;;6.32;;
19861;SDS011;10093;48.148;8.542;2023-02-28T03:52:48;9.93;;;6.20;;
19861;SDS011;10093;48.148;8.542;2023-02-28T03:55:18;11.52;;;6.05;;
19861;SDS011;10093;48.148;8.542;2023-02-28T03:57:48;11.13;;;6.20;;
19861;SDS011;10093;48.148;8.542;2023-02-28T04:00:38;10.95;;;6.50;;
19861;SDS011;10093;48.148;8.542;2023-02-28T04:03:09;11.05;;;6.32;;
19861;SDS011;10093;48.148;8.542;2023-02-28T04:05:43;9.40;;;6.22;;
19861;SDS011;10093;48.148;8.542;2023-02-28T04:08:18;10.25;;;6.72;;
19861;SDS011;10093;48.148;8.542;2023-02-28T04:10:45;10.57;;;6.88;;
19861;SDS011;10093;48.148;8.542;2023-02-28T04:13:18;9.18;;;6.10;;
19861;SDS011;10093;48.148;8.542;2023-02-28T04:15:43;14.20;;;6.82;;
19861;SDS011;10093;48.148;8.542;2023-02-28T04:18:09;11.10;;;6.38;;
19861;SDS011;10093;48.148;8.542;2023-02-28T04:20:35;8.80;;;5.97;;
19861;SDS011;10093;48.148;8.542;2023-02-28T04:23:01;10.82;;;6.38;;
19861;SDS011;10093;48.148;8.542;2023-02-28T04:25:26;11.15;;;6.20;;
19861;SDS011;10093;48.148;8.542;2023-02-28T04:27:52;10.85;;;6.30;;
19861;SDS011;10093;48.148;8.542;2023-02-28T04:30:17;13.63;;;5.95;;
19861;SDS011;10093;48.148;8.542;2023-02-28T04:32:43;11.05;;;6.50;;
19861;SDS011;10093;48.148;8.542;2023-02-28T04:35:09;12.15;;;6.80;;
19861;SDS011;10093;48.148;8.542;2023-02-28T04:37:34;12.65;;;6.57;;
19861;SDS011;10093;48.148;8.542;2023-02-28T04:40:01;9.80;;;6.70;;
19861;SDS011;10093;48.148;8.542;2023-02-28T04:42:28;13.25;;;6.75;;
19861;SDS011;10093;48.148;8.542;2023-02-28T04:45:00;13.25;;;7.32;;
19861;SDS011;10093;48.148;8.542;2023-02-28T04:47:27;13.98;;;6.95;;
19861;SDS011;10093;48.148;8.542;2023-02-28T04:49:52;10.27;;;6.70;;
19861;SDS011;10093;48.148;8.542;2023-02-28T04:52:18;10.43;;;6.18;;
19861;SDS011;10093;48.148;8.542;2023-02-28T04:54:44;14.23;;;7.32;;
19861;SDS011;10093;48.148;8.542;2023-02-28T04:57:10;15.40;;;7.40;;
19861;SDS011;10093;48.148;8.542;2023-02-28T04:59:35;11.32;;;6.72;;
19861;SDS011;10093;48.148;8.542;2023-02-28T05:02:01;13.50;;;7.35;;
19861;SDS011;10093;48.148;8.542;2023-02-28T05:04:31;13.52;;;7.22;;
19861;SDS011;10093;48.148;8.542;2023-02-28T05:06:59;10.68;;;7.40;;
19861;SDS011;10093;48.148;8.542;2023-02-28T05:09:25;20.52;;;10.07;;
19861;SDS011;10093;48.148;8.542;2023-02-28T05:11:51;72.50;;;32.08;;
19861;SDS011;10093;48.148;8.542;2023-02-28T05:14:16;60.35;;;23.80;;
19861;SDS011;10093;48.148;8.542;2023-02-28T05:16:42;15.68;;;8.73;;
19861;SDS011;10093;48.148;8.542;2023-02-28T05:19:08;36.35;;;16.40;;
19861;SDS011;10093;48.148;8.542;2023-02-28T05:21:34;16.83;;;10.13;;
19861;SDS011;10093;48.148;8.542;2023-02-28T05:24:09;98.78;;;42.42;;
19861;SDS011;10093;48.148;8.542;2023-02-28T05:26:37;91.20;;;40.00;;
19861;SDS011;10093;48.148;8.542;2023-02-28T05:29:05;25.95;;;12.20;;
19861;SDS011;10093;48.148;8.542;2023-02-28T05:31:30;26.63;;;12.68;;
19861;SDS011;10093;48.148;8.542;2023-02-28T05:33:56;21.02;;;10.10;;
19861;SDS011;10093;48.148;8.542;2023-02-28T05:36:22;57.70;;;24.95;;
19861;SDS011;10093;48.148;8.542;2023-02-28T05:38:48;18.00;;;9.73;;
19861;SDS011;10093;48.148;8.542;2023-02-28T05:41:15;16.13;;;9.40;;
19861;SDS011;10093;48.148;8.542;2023-02-28T05:43:41;12.70;;;7.70;;
19861;SDS011;10093;48.148;8.542;2023-02-28T05:46:07;12.35;;;7.68;;
19861;SDS011;10093;48.148;8.542;2023-02-28T05:48:35;15.38;;;9.65;;
19861;SDS011;10093;48.148;8.542;2023-02-28T05:51:02;15.73;;;9.10;;
19861;SDS011;10093;48.148;8.542;2023-02-28T05:53:29;16.10;;;8.38;;
19861;SDS011;10093;48.148;8.542;2023-02-28T05:55:55;14.10;;;8.63;;
19861;SDS011;10093;48.148;8.542;2023-02-28T05:58:21;13.75;;;7.50;;
19861;SDS011;10093;48.148;8.542;2023-02-28T06:00:48;22.38;;;9.40;;
19861;SDS011;10093;48.148;8.542;2023-02-28T06:03:14;16.58;;;10.70;;
19861;SDS011;10093;48.148;8.542;2023-02-28T06:05:40;22.52;;;11.98;;
19861;SDS011;10093;48.148;8.542;2023-02-28T06:08:05;16.30;;;9.25;;
19861;SDS011;10093;48.148;8.542;2023-02-28T06:10:32;19.13;;;10.30;;
19861;SDS011;10093;48.148;8.542;2023-02-28T06:12:59;17.40;;;9.90;;
19861;SDS011;10093;48.148;8.542;2023-02-28T06:15:27;14.60;;;9.32;;
19861;SDS011;10093;48.148;8.542;2023-02-28T06:17:53;14.57;;;9.10;;
19861;SDS011;10093;48.148;8.542;2023-02-28T06:20:21;18.27;;;9.05;;
19861;SDS011;10093;48.148;8.542;2023-02-28T06:22:47;85.97;;;35.72;;
19861;SDS011;10093;48.148;8.542;2023-02-28T06:25:12;44.88;;;20.42;;
19861;SDS011;10093;48.148;8.542;2023-02-28T06:27:38;67.90;;;29.65;;
19861;SDS011;10093;48.148;8.542;2023-02-28T06:30:04;56.88;;;26.50;;
19861;SDS011;10093;48.148;8.542;2023-02-28T06:32:30;48.70;;;23.38;;
19861;SDS011;10093;48.148;8.542;2023-02-28T06:34:56;15.68;;;9.57;;
19861;SDS011;10093;48.148;8.542;2023-02-28T06:37:23;16.55;;;10.18;;
19861;SDS011;10093;48.148;8.542;2023-02-28T06:39:51;17.08;;;9.75;;
19861;SDS011;10093;48.148;8.542;2023-02-28T06:42:16;17.40;;;10.35;;
19861;SDS011;10093;48.148;8.542;2023-02-28T06:44:42;19.10;;;10.20;;
19861;SDS011;10093;48.148;8.542;2023-02-28T06:47:08;17.50;;;9.63;;
19861;SDS011;10093;48.148;8.542;2023-02-28T06:49:34;20.02;;;9.82;;
19861;SDS011;10093;48.148;8.542;2023-02-28T06:52:00;16.55;;;9.77;;
19861;SDS011;10093;48.148;8.542;2023-02-28T06:54:27;21.70;;;11.35;;
19861;SDS011;10093;48.148;8.542;2023-02-28T06:56:52;16.85;;;10.27;;
19861;SDS011;10093;48.148;8.542;2023-02-28T06:59:19;16.90;;;10.25;;
19861;SDS011;10093;48.148;8.542;2023-02-28T07:01:45;17.38;;;10.63;;
19861;SDS011;10093;48.148;8.542;2023-02-28T07:04:11;18.30;;;10.88;;
19861;SDS011;10093;48.148;8.542;2023-02-28T07:06:38;21.52;;;12.50;;
19861;SDS011;10093;48.148;8.542;2023-02-28T07:09:03;18.92;;;10.65;;
19861;SDS011;10093;48.148;8.542;2023-02-28T07:11:30;18.35;;;10.43;;
19861;SDS011;10093;48.148;8.542;2023-02-28T07:13:56;19.20;;;11.45;;
19861;SDS011;10093;48.148;8.542;2023-02-28T07:16:22;19.10;;;11.40;;
19861;SDS011;10093;48.148;8.542;2023-02-28T07:18:49;18.45;;;10.63;;
19861;SDS011;10093;48.148;8.542;2023-02-28T07:21:17;19.33;;;11.77;;
19861;SDS011;10093;48.148;8.542;2023-02-28T07:23:42;21.35;;;10.82;;
19861;SDS011;10093;48.148;8.542;2023-02-28T07:26:12;19.20;;;11.70;;
19861;SDS011;10093;48.148;8.542;2023-02-28T07:28:41;19.65;;;11.45;;
19861;SDS011;10093;48.148;8.542;2023-02-28T07:31:07;22.00;;;11.93;;
19861;SDS011;10093;48.148;8.542;2023-02-28T07:33:34;24.63;;;11.60;;
19861;SDS011;10093;48.148;8.542;2023-02-28T07:36:04;18.50;;;10.90;;
19861;SDS011;10093;48.148;8.542;2023-02-28T07:38:33;19.63;;;10.65;;
19861;SDS011;10093;48.148;8.542;2023-02-28T07:41:00;20.33;;;11.18;;
19861;SDS011;10093;48.148;8.542;2023-02-28T07:43:29;17.65;;;10.63;;
19861;SDS011;10093;48.148;8.542;2023-02-28T07:45:55;18.85;;;10.73;;
19861;SDS011;10093;48.148;8.542;2023-02-28T07:48:21;16.55;;;10.10;;
19861;SDS011;10093;48.148;8.542;2023-02-28T07:50:53;18.13;;;10.20;;
19861;SDS011;10093;48.148;8.542;2023-02-28T07:53:20;20.20;;;9.88;;
19861;SDS011;10093;48.148;8.542;2023-02-28T07:55:46;16.02;;;9.82;;
19861;SDS011;10093;48.148;8.542;2023-02-28T07:58:11;17.33;;;9.77;;
19861;SDS011;10093;48.148;8.542;2023-02-28T08:00:37;17.05;;;10.35;;
19861;SDS011;10093;48.148;8.542;2023-02-28T08:03:03;16.38;;;10.25;;
19861;SDS011;10093;48.148;8.542;2023-02-28T08:05:29;16.33;;;10.43;;
19861;SDS011;10093;48.148;8.542;2023-02-28T08:07:55;19.08;;;10.43;;
19861;SDS011;10093;48.148;8.542;2023-02-28T08:10:22;19.80;;;10.15;;
19861;SDS011;10093;48.148;8.542;2023-02-28T08:12:48;19.50;;;10.07;;
19861;SDS011;10093;48.148;8.542;2023-02-28T08:15:14;19.85;;;9.75;;
19861;SDS011;10093;48.148;8.542;2023-02-28T08:17:40;23.42;;;12.63;;
19861;SDS011;10093;48.148;8.542;2023-02-28T08:20:05;19.92;;;10.80;;
19861;SDS011;10093;48.148;8.542;2023-02-28T08:22:32;19.35;;;11.30;;
19861;SDS011;10093;48.148;8.542;2023-02-28T08:24:57;17.00;;;10.65;;
19861;SDS011;10093;48.148;8.542;2023-02-28T08:27:23;16.45;;;10.00;;
19861;SDS011;10093;48.148;8.542;2023-02-28T08:29:49;21.67;;;10.40;;
19861;SDS011;10093;48.148;8.542;2023-02-28T08:32:14;17.75;;;9.90;;
19861;SDS011;10093;48.148;8.542;2023-02-28T08:34:40;15.35;;;9.48;;
19861;SDS011;10093;48.148;8.542;2023-02-28T08:37:06;17.00;;;10.05;;
19861;SDS011;10093;48.148;8.542;2023-02-28T08:39:33;19.00;;;9.70;;
19861;SDS011;10093;48.148;8.542;2023-02-28T08:42:00;18.80;;;9.35;;
19861;SDS011;10093;48.148;8.542;2023-02-28T08:44:27;14.75;;;8.98;;
19861;SDS011;10093;48.148;8.542;2023-02-28T08:46:52;17.98;;;9.65;;
19861;SDS011;10093;48.148;8.542;2023-02-28T08:49:18;17.77;;;9.23;;
19861;SDS011;10093;48.148;8.542;2023-02-28T08:51:44;19.73;;;10.02;;
19861;SDS011;10093;48.148;8.542;2023-02-28T08:54:09;21.23;;;11.77;;
19861;SDS011;10093;48.148;8.542;2023-02-28T08:56:41;18.60;;;10.52;;
19861;SDS011;10093;48.148;8.542;2023-02-28T08:59:08;19.33;;;11.38;;
19861;SDS011;10093;48.148;8.542;2023-02-28T09:01:34;16.00;;;9.43;;
19861;SDS011;10093;48.148;8.542;2023-02-28T09:04:01;20.92;;;10.57;;
19861;SDS011;10093;48.148;8.542;2023-02-28T09:06:27;16.50;;;9.38;;
19861;SDS011;10093;48.148;8.542;2023-02-28T09:08:55;16.50;;;9.57;;
19861;SDS011;10093;48.148;8.542;2023-02-28T09:11:23;15.50;;;9.38;;
19861;SDS011;10093;48.148;8.542;2023-02-28T09:13:49;15.15;;;9.05;;
19861;SDS011;10093;48.148;8.542;2023-02-28T09:16:14;16.90;;;9.52;;
19861;SDS011;10093;48.148;8.542;2023-02-28T09:18:41;21.02;;;10.23;;
19861;SDS011;10093;48.148;8.542;2023-02-28T09:21:08;16.58;;;10.75;;
19861;SDS011;10093;48.148;8.542;2023-02-28T09:23:39;20.27;;;10.57;;
19861;SDS011;10093;48.148;8.542;2023-02-28T09:26:05;18.88;;;10.55;;
19861;SDS011;10093;48.148;8.542;2023-02-28T09:28:31;15.10;;;9.82;;
19861;SDS011;10093;48.148;8.542;2023-02-28T09:30:57;17.88;;;10.02;;
19861;SDS011;10093;48.148;8.542;2023-02-28T09:33:24;17.65;;;9.95;;
19861;SDS011;10093;48.148;8.542;2023-02-28T09:35:51;19.13;;;9.88;;
19861;SDS011;10093;48.148;8.542;2023-02-28T09:38:23;20.33;;;10.32;;
19861;SDS011;10093;48.148;8.542;2023-02-28T09:43:23;21.02;;;10.65;;
19861;SDS011;10093;48.148;8.542;2023-02-28T09:48:54;19.15;;;9.73;;
19861;SDS011;10093;48.148;8.542;2023-02-28T09:53:55;14.63;;;8.77;;
19861;SDS011;10093;48.148;8.542;2023-02-28T09:56:21;16.02;;;9.75;;
19861;SDS011;10093;48.148;8.542;2023-02-28T09:58:59;14.85;;;9.15;;
19861;SDS011;10093;48.148;8.542;2023-02-28T10:01:37;16.50;;;9.70;;
19861;SDS011;10093;48.148;8.542;2023-02-28T10:06:46;15.88;;;8.98;;
19861;SDS011;10093;48.148;8.542;2023-02-28T10:11:47;18.17;;;10.77;;
19861;SDS011;10093;48.148;8.542;2023-02-28T10:14:21;19.88;;;10.45;;
19861;SDS011;10093;48.148;8.542;2023-02-28T10:17:03;17.38;;;10.15;;
19861;SDS011;10093;48.148;8.542;2023-02-28T10:19:39;17.63;;;10.20;;
19861;SDS011;10093;48.148;8.542;2023-02-28T10:22:34;15.70;;;9.68;;
19861;SDS011;10093;48.148;8.542;2023-02-28T10:25:18;16.17;;;10.82;;
19861;SDS011;10093;48.148;8.542;2023-02-28T10:27:45;18.42;;;11.05;;
19861;SDS011;10093;48.148;8.542;2023-02-28T10:30:11;21.05;;;12.05;;
19861;SDS011;10093;48.148;8.542;2023-02-28T10:32:43;21.42;;;13.13;;
19861;SDS011;10093;48.148;8.542;2023-02-28T10:37:51;19.50;;;11.80;;
19861;SDS011;10093;48.148;8.542;2023-02-28T10:42:56;18.92;;;11.63;;
19861;SDS011;10093;48.148;8.542;2023-02-28T10:45:26;20.83;;;11.13;;
19861;SDS011;10093;48.148;8.542;2023-02-28T10:48:02;19.50;;;11.95;;
19861;SDS011;10093;48.148;8.542;2023-02-28T10:50:50;20.52;;;12.25;;
19861;SDS011;10093;48.148;8.542;2023-02-28T10:56:04;20.13;;;11.43;;
19861;SDS011;10093;48.148;8.542;2023-02-28T10:58:31;19.27;;;11.05;;
19861;SDS011;10093;48.148;8.542;2023-02-28T11:01:16;16.98;;;10.73;;
19861;SDS011;10093;48.148;8.542;2023-02-28T11:03:47;18.38;;;11.23;;
19861;SDS011;10093;48.148;8.542;2023-02-28T11:06:15;20.05;;;12.32;;
19861;SDS011;10093;48.148;8.542;2023-02-28T11:08:54;20.65;;;11.95;;
19861;SDS011;10093;48.148;8.542;2023-02-28T11:11:22;18.85;;;11.20;;
19861;SDS011;10093;48.148;8.542;2023-02-28T11:13:58;17.55;;;11.63;;
19861;SDS011;10093;48.148;8.542;2023-02-28T11:16:36;18.95;;;11.60;;
19861;SDS011;10093;48.148;8.542;2023-02-28T11:19:04;18.58;;;11.70;;
19861;SDS011;10093;48.148;8.542;2023-02-28T11:21:41;21.10;;;12.02;;
19861;SDS011;10093;48.148;8.542;2023-02-28T11:26:51;19.65;;;11.73;;
19861;SDS011;10093;48.148;8.542;2023-02-28T11:29:25;18.70;;;11.85;;
19861;SDS011;10093;48.148;8.542;2023-02-28T11:34:36;18.80;;;11.90;;
19861;SDS011;10093;48.148;8.542;2023-02-28T11:37:03;17.58;;;11.25;;
19861;SDS011;10093;48.148;8.542;2023-02-28T11:39:31;18.45;;;11.90;;
19861;SDS011;10093;48.148;8.542;2023-02-28T11:50:14;19.00;;;10.77;;
19861;SDS011;10093;48.148;8.542;2023-02-28T11:53:05;19.55;;;12.05;;
19861;SDS011;10093;48.148;8.542;2023-02-28T11:55:39;19.25;;;11.13;;
19861;SDS011;10093;48.148;8.542;2023-02-28T12:01:09;19.58;;;10.98;;
19861;SDS011;10093;48.148;8.542;2023-02-28T12:11:50;17.38;;;11.35;;
19861;SDS011;10093;48.148;8.542;2023-02-28T12:17:59;17.45;;;10.80;;
19861;SDS011;10093;48.148;8.542;2023-02-28T12:25:55;17.58;;;10.15;;
19861;SDS011;10093;48.148;8.542;2023-02-28T12:28:44;18.02;;;10.57;;
19861;SDS011;10093;48.148;8.542;2023-02-28T12:31:17;17.58;;;10.82;;
19861;SDS011;10093;48.148;8.542;2023-02-28T12:34:11;19.13;;;11.20;;
19861;SDS011;10093;48.148;8.542;2023-02-28T12:36:36;18.63;;;11.25;;
19861;SDS011;10093;48.148;8.542;2023-02-28T12:39:04;18.52;;;10.63;;
19861;SDS011;10093;48.148;8.542;2023-02-28T12:41:51;18.00;;;11.25;;
19861;SDS011;10093;48.148;8.542;2023-02-28T12:44:52;18.95;;;12.10;;
19861;SDS011;10093;48.148;8.542;2023-02-28T12:47:23;21.88;;;13.38;;
19861;SDS011;10093;48.148;8.542;2023-02-28T12:49:50;17.00;;;11.48;;
19861;SDS011;10093;48.148;8.542;2023-02-28T12:58:22;18.83;;;11.40;;
19861;SDS011;10093;48.148;8.542;2023-02-28T13:01:13;17.67;;;11.43;;
19861;SDS011;10093;48.148;8.542;2023-02-28T13:09:31;18.08;;;11.55;;
19861;SDS011;10093;48.148;8.542;2023-02-28T13:11:57;20.27;;;12.43;;
19861;SDS011;10093;48.148;8.542;2023-02-28T13:14:24;21.23;;;12.18;;
19861;SDS011;10093;48.148;8.542;2023-02-28T13:22:41;18.67;;;11.02;;
19861;SDS011;10093;48.148;8.542;2023-02-28T13:27:57;20.27;;;11.85;;
19861;SDS011;10093;48.148;8.542;2023-02-28T13:33:37;17.17;;;10.15;;
19861;SDS011;10093;48.148;8.542;2023-02-28T13:36:26;18.55;;;10.73;;
19861;SDS011;10093;48.148;8.542;2023-02-28T13:38:55;16.17;;;11.23;;
19861;SDS011;10093;48.148;8.542;2023-02-28T13:46:34;18.60;;;11.60;;
19861;SDS011;10093;48.148;8.542;2023-02-28T14:02:48;22.13;;;12.90;;
19861;SDS011;10093;48.148;8.542;2023-02-28T14:05:19;25.75;;;13.85;;
19861;SDS011;10093;48.148;8.542;2023-02-28T14:07:58;16.02;;;11.20;;
19861;SDS011;10093;48.148;8.542;2023-02-28T14:10:33;14.18;;;9.90;;
19861;SDS011;10093;48.148;8.542;2023-02-28T14:16:02;15.20;;;10.60;;
19861;SDS011;10093;48.148;8.542;2023-02-28T14:18:34;22.42;;;12.60;;
19861;SDS011;10093;48.148;8.542;2023-02-28T14:21:09;15.52;;;10.73;;
19861;SDS011;10093;48.148;8.542;2023-02-28T14:37:50;16.73;;;11.45;;
19861;SDS011;10093;48.148;8.542;2023-02-28T14:40:26;16.70;;;11.30;;
19861;SDS011;10093;48.148;8.542;2023-02-28T14:43:05;17.30;;;10.73;;
19861;SDS011;10093;48.148;8.542;2023-02-28T14:45:32;18.67;;;11.05;;
19861;SDS011;10093;48.148;8.542;2023-02-28T14:48:00;13.70;;;9.70;;
19861;SDS011;10093;48.148;8.542;2023-02-28T14:50:31;13.65;;;9.82;;
19861;SDS011;10093;48.148;8.542;2023-02-28T14:52:59;16.38;;;10.35;;
19861;SDS011;10093;48.148;8.542;2023-02-28T14:55:32;14.45;;;10.65;;
19861;SDS011;10093;48.148;8.542;2023-02-28T14:58:04;16.90;;;10.70;;
19861;SDS011;10093;48.148;8.542;2023-02-28T15:00:47;17.88;;;11.40;;
19861;SDS011;10093;48.148;8.542;2023-02-28T15:03:22;16.58;;;10.82;;
19861;SDS011;10093;48.148;8.542;2023-02-28T15:06:05;17.02;;;10.60;;
19861;SDS011;10093;48.148;8.542;2023-02-28T15:08:42;22.48;;;11.82;;
19861;SDS011;10093;48.148;8.542;2023-02-28T15:11:08;16.95;;;10.30;;
19861;SDS011;10093;48.148;8.542;2023-02-28T15:13:41;16.20;;;10.35;;
19861;SDS011;10093;48.148;8.542;2023-02-28T15:27:09;16.52;;;10.65;;
19861;SDS011;10093;48.148;8.542;2023-02-28T15:29:51;17.38;;;10.95;;
19861;SDS011;10093;48.148;8.542;2023-02-28T15:32:32;15.47;;;10.47;;
19861;SDS011;10093;48.148;8.542;2023-02-28T15:34:59;13.98;;;10.07;;
19861;SDS011;10093;48.148;8.542;2023-02-28T15:48:23;17.45;;;11.35;;
19861;SDS011;10093;48.148;8.542;2023-02-28T15:50:56;17.17;;;11.32;;
19861;SDS011;10093;48.148;8.542;2023-02-28T15:53:31;15.70;;;11.35;;
19861;SDS011;10093;48.148;8.542;2023-02-28T15:56:00;14.52;;;10.50;;
19861;SDS011;10093;48.148;8.542;2023-02-28T15:58:28;14.43;;;10.27;;
19861;SDS011;10093;48.148;8.542;2023-02-28T16:01:03;17.35;;;11.00;;
19861;SDS011;10093;48.148;8.542;2023-02-28T16:03:50;14.63;;;10.70;;
19861;SDS011;10093;48.148;8.542;2023-02-28T16:09:00;16.20;;;11.98;;
19861;SDS011;10093;48.148;8.542;2023-02-28T16:11:27;16.50;;;10.55;;
19861;SDS011;10093;48.148;8.542;2023-02-28T16:13:53;16.95;;;11.38;;
19861;SDS011;10093;48.148;8.542;2023-02-28T16:16:20;15.77;;;11.32;;
19861;SDS011;10093;48.148;8.542;2023-02-28T16:18:49;16.85;;;11.30;;
19861;SDS011;10093;48.148;8.542;2023-02-28T16:21:15;17.58;;;11.98;;
19861;SDS011;10093;48.148;8.542;2023-02-28T16:23:41;18.30;;;11.88;;
19861;SDS011;10093;48.148;8.542;2023-02-28T16:26:06;21.23;;;11.85;;
19861;SDS011;10093;48.148;8.542;2023-02-28T16:28:34;16.52;;;10.65;;
19861;SDS011;10093;48.148;8.542;2023-02-28T16:31:02;18.23;;;10.98;;
19861;SDS011;10093;48.148;8.542;2023-02-28T16:33:29;16.42;;;11.25;;
19861;SDS011;10093;48.148;8.542;2023-02-28T16:35:55;18.83;;;12.02;;
19861;SDS011;10093;48.148;8.542;2023-02-28T16:38:21;18.23;;;12.05;;
19861;SDS011;10093;48.148;8.542;2023-02-28T16:40:48;21.80;;;13.15;;
19861;SDS011;10093;48.148;8.542;2023-02-28T16:43:16;19.50;;;13.23;;
19861;SDS011;10093;48.148;8.542;2023-02-28T16:45:46;22.77;;;14.40;;
19861;SDS011;10093;48.148;8.542;2023-02-28T16:48:13;19.10;;;13.60;;
19861;SDS011;10093;48.148;8.542;2023-02-28T16:50:40;19.63;;;12.73;;
19861;SDS011;10093;48.148;8.542;2023-02-28T16:53:05;21.08;;;12.60;;
19861;SDS011;10093;48.148;8.542;2023-02-28T16:55:31;21.15;;;13.65;;
19861;SDS011;10093;48.148;8.542;2023-02-28T16:57:58;24.30;;;14.80;;
19861;SDS011;10093;48.148;8.542;2023-02-28T17:00:25;19.75;;;11.98;;
19861;SDS011;10093;48.148;8.542;2023-02-28T17:02:52;22.38;;;13.15;;
19861;SDS011;10093;48.148;8.542;2023-02-28T17:05:19;21.77;;;14.00;;
19861;SDS011;10093;48.148;8.542;2023-02-28T17:07:45;21.15;;;13.25;;
19861;SDS011;10093;48.148;8.542;2023-02-28T17:10:29;20.85;;;13.15;;
19861;SDS011;10093;48.148;8.542;2023-02-28T17:12:54;23.20;;;13.45;;
19861;SDS011;10093;48.148;8.542;2023-02-28T17:15:20;20.45;;;12.82;;
19861;SDS011;10093;48.148;8.542;2023-02-28T17:17:46;22.52;;;13.10;;
19861;SDS011;10093;48.148;8.542;2023-02-28T17:20:14;22.70;;;14.02;;
19861;SDS011;10093;48.148;8.542;2023-02-28T17:22:42;22.73;;;13.90;;
19861;SDS011;10093;48.148;8.542;2023-02-28T17:25:08;24.38;;;13.45;;
19861;SDS011;10093;48.148;8.542;2023-02-28T17:27:35;20.98;;;13.20;;
19861;SDS011;10093;48.148;8.542;2023-02-28T17:30:01;20.02;;;13.05;;
19861;SDS011;10093;48.148;8.542;2023-02-28T17:32:28;24.27;;;14.77;;
19861;SDS011;10093;48.148;8.542;2023-02-28T17:34:53;24.63;;;15.00;;